createdAt,value
2019-02-15T00:01:50.131Z,16.57
2019-02-15T00:04:19.463Z,16.47
2019-02-15T00:06:48.893Z,16.63
2019-02-15T00:09:18.238Z,17.53
2019-02-15T00:11:47.565Z,17.70
2019-02-15T00:14:16.926Z,16.17
2019-02-15T00:16:46.394Z,16.33
2019-02-15T00:19:32.830Z,17.27
2019-02-15T00:22:02.197Z,15.80
2019-02-15T00:24:31.534Z,15.60
2019-02-15T00:27:00.885Z,14.73
2019-02-15T00:29:30.360Z,15.23
2019-02-15T00:43:41.368Z,16.43
2019-02-15T00:46:28.566Z,15.87
2019-02-15T00:48:58.921Z,14.53
2019-02-15T00:51:35.863Z,15.80
2019-02-15T00:54:23.060Z,15.40
2019-02-15T00:56:59.537Z,16.33
2019-02-15T00:59:36.482Z,15.93
2019-02-15T01:02:07.642Z,15.63
2019-02-15T01:04:47.465Z,15.43
2019-02-15T01:07:34.836Z,15.53
2019-02-15T01:10:22.620Z,15.43
2019-02-15T01:12:53.599Z,15.83
2019-02-15T01:15:23.140Z,16.23
2019-02-15T01:17:52.468Z,16.53
2019-02-15T01:20:21.895Z,15.70
2019-02-15T01:22:51.349Z,16.37
2019-02-15T01:25:20.751Z,15.80
2019-02-15T01:27:54.431Z,16.43
2019-02-15T01:30:34.283Z,15.87
2019-02-15T01:33:08.143Z,16.10
2019-02-15T01:35:44.965Z,16.00
2019-02-15T01:38:21.730Z,16.10
2019-02-15T01:40:52.687Z,17.00
2019-02-15T01:43:26.557Z,17.80
2019-02-15T01:46:06.892Z,16.80
2019-02-15T01:48:41.627Z,16.07
2019-02-15T01:51:10.954Z,15.53
2019-02-15T01:53:40.281Z,15.20
2019-02-15T01:56:09.628Z,15.70
2019-02-15T01:58:38.934Z,15.53
2019-02-15T02:01:08.282Z,15.60
2019-02-15T02:03:37.656Z,16.17
2019-02-15T02:06:07.069Z,16.30
2019-02-15T02:08:36.460Z,15.73
2019-02-15T02:11:05.786Z,14.67
2019-02-15T02:13:35.153Z,15.23
2019-02-15T02:16:04.532Z,15.27
2019-02-15T02:18:33.862Z,16.37
2019-02-15T02:21:03.392Z,16.33
2019-02-15T02:23:33.762Z,15.83
2019-02-15T02:26:03.088Z,15.83
2019-02-15T02:28:32.508Z,16.27
2019-02-15T02:31:01.900Z,14.73
2019-02-15T02:33:31.291Z,16.33
2019-02-15T02:36:00.711Z,16.37
2019-02-15T02:38:30.168Z,14.90
2019-02-15T02:40:59.502Z,15.33
2019-02-15T02:43:28.878Z,16.43
2019-02-15T02:45:58.269Z,14.77
2019-02-15T02:48:27.588Z,16.03
2019-02-15T02:50:56.950Z,15.73
2019-02-15T02:53:26.266Z,15.17
2019-02-15T02:55:55.600Z,15.80
2019-02-15T02:58:24.928Z,15.43
2019-02-15T03:00:54.258Z,16.43
2019-02-15T03:03:23.581Z,15.03
2019-02-15T03:05:52.935Z,16.07
2019-02-15T03:08:22.331Z,15.73
2019-02-15T03:10:51.645Z,14.97
2019-02-15T03:13:21.049Z,15.17
2019-02-15T03:15:50.391Z,16.03
2019-02-15T03:18:19.872Z,14.77
2019-02-15T03:20:49.278Z,14.97
2019-02-15T03:23:18.676Z,15.23
2019-02-15T03:25:48.009Z,14.80
2019-02-15T03:28:17.423Z,15.43
2019-02-15T03:30:46.757Z,16.13
2019-02-15T03:33:16.093Z,14.80
2019-02-15T03:35:58.827Z,16.20
2019-02-15T03:38:38.922Z,18.47
2019-02-15T03:41:10.113Z,18.63
2019-02-15T03:43:39.440Z,19.03
2019-02-15T03:46:08.761Z,16.40
2019-02-15T03:48:38.102Z,16.83
2019-02-15T03:51:07.439Z,18.77
2019-02-15T03:53:36.770Z,18.07
2019-02-15T03:56:06.191Z,16.73
2019-02-15T03:58:35.576Z,18.03
2019-02-15T04:01:04.956Z,17.80
2019-02-15T04:03:34.488Z,19.30
2019-02-15T04:06:03.941Z,17.67
2019-02-15T04:08:33.269Z,17.20
2019-02-15T04:11:02.696Z,17.27
2019-02-15T04:13:32.025Z,17.67
2019-02-15T04:16:01.328Z,17.20
2019-02-15T04:18:30.666Z,18.13
2019-02-15T04:20:59.984Z,18.00
2019-02-15T04:23:29.301Z,17.33
2019-02-15T04:25:58.655Z,17.30
2019-02-15T04:28:27.977Z,18.17
2019-02-15T04:30:57.305Z,17.77
2019-02-15T04:33:26.674Z,18.33
2019-02-15T04:35:56.062Z,17.80
2019-02-15T04:38:25.461Z,18.67
2019-02-15T04:40:54.824Z,17.63
2019-02-15T04:43:24.136Z,19.53
2019-02-15T04:45:53.453Z,19.07
2019-02-15T04:48:22.789Z,17.67
2019-02-15T04:50:52.114Z,18.37
2019-02-15T04:53:21.437Z,17.90
2019-02-15T04:55:50.776Z,16.27
2019-02-15T04:58:20.105Z,19.63
2019-02-15T05:00:49.422Z,18.67
2019-02-15T05:03:19.592Z,17.23
2019-02-15T05:05:49.069Z,18.23
2019-02-15T05:08:18.397Z,16.90
2019-02-15T05:10:47.806Z,18.43
2019-02-15T05:13:17.250Z,17.10
2019-02-15T05:15:46.563Z,18.67
2019-02-15T05:18:15.945Z,16.63
2019-02-15T05:20:45.329Z,17.60
2019-02-15T05:23:14.656Z,17.07
2019-02-15T05:25:44.008Z,17.60
2019-02-15T05:28:13.413Z,16.40
2019-02-15T05:30:42.741Z,16.57
2019-02-15T05:33:12.114Z,17.23
2019-02-15T05:35:41.445Z,17.47
2019-02-15T05:38:10.760Z,17.03
2019-02-15T05:40:40.134Z,17.43
2019-02-15T05:43:09.523Z,17.90
2019-02-15T05:45:38.908Z,18.33
2019-02-15T05:48:08.372Z,18.33
2019-02-15T05:50:37.759Z,18.63
2019-02-15T05:53:07.098Z,17.17
2019-02-15T05:55:36.462Z,17.37
2019-02-15T05:58:05.779Z,18.77
2019-02-15T06:00:37.278Z,17.93
2019-02-15T06:03:06.224Z,18.67
2019-02-15T06:05:36.619Z,19.10
2019-02-15T06:08:05.954Z,16.97
2019-02-15T06:10:35.322Z,18.77
2019-02-15T06:13:04.653Z,17.70
2019-02-15T06:15:33.968Z,19.50
2019-02-15T06:18:03.311Z,18.10
2019-02-15T06:20:32.716Z,18.63
2019-02-15T06:23:02.031Z,18.77
2019-02-15T06:25:31.390Z,19.43
2019-02-15T06:28:00.714Z,18.17
2019-02-15T06:30:30.029Z,20.33
2019-02-15T06:32:59.364Z,19.17
2019-02-15T06:35:29.665Z,18.27
2019-02-15T06:37:58.993Z,18.57
2019-02-15T06:40:28.329Z,18.50
2019-02-15T06:42:57.649Z,18.33
2019-02-15T06:45:26.999Z,18.97
2019-02-15T06:47:56.331Z,18.07
2019-02-15T06:50:28.455Z,18.80
2019-02-15T06:52:57.787Z,18.97
2019-02-15T06:55:27.109Z,17.90
2019-02-15T06:57:56.427Z,18.70
2019-02-15T07:00:27.432Z,19.23
2019-02-15T07:03:01.324Z,19.67
2019-02-15T07:05:30.651Z,19.20
2019-02-15T07:08:00.108Z,19.20
2019-02-15T07:10:29.442Z,18.00
2019-02-15T07:12:58.777Z,18.33
2019-02-15T07:15:33.662Z,18.73
2019-02-15T07:17:59.150Z,19.60
2019-02-15T07:20:28.516Z,19.57
2019-02-15T07:22:57.837Z,18.97
2019-02-15T07:25:27.249Z,19.47
2019-02-15T07:27:56.581Z,19.70
2019-02-15T07:30:25.903Z,20.23
2019-02-15T07:32:55.275Z,19.53
2019-02-15T07:35:24.621Z,19.47
2019-02-15T07:37:54.032Z,20.23
2019-02-15T07:40:23.409Z,20.67
2019-02-15T07:42:52.748Z,19.27
2019-02-15T07:45:22.712Z,18.83
2019-02-15T07:47:52.169Z,20.17
2019-02-15T07:50:21.530Z,21.37
2019-02-15T07:52:50.841Z,20.23
2019-02-15T07:55:20.166Z,20.20
2019-02-15T07:57:49.520Z,20.73
2019-02-15T08:00:18.913Z,20.63
2019-02-15T08:02:48.233Z,22.17
2019-02-15T08:05:17.659Z,22.75
2019-02-15T08:07:47.040Z,21.93
2019-02-15T08:10:16.372Z,19.93
2019-02-15T08:12:45.718Z,20.17
2019-02-15T08:15:15.192Z,20.57
2019-02-15T08:17:45.914Z,22.70
2019-02-15T08:20:15.273Z,22.93
2019-02-15T08:22:44.598Z,21.27
2019-02-15T08:25:13.929Z,21.97
2019-02-15T08:27:43.273Z,22.47
2019-02-15T08:30:12.754Z,21.33
2019-02-15T08:32:42.160Z,20.50
2019-02-15T08:35:11.697Z,22.23
2019-02-15T08:37:41.076Z,21.63
2019-02-15T08:40:11.356Z,22.07
2019-02-15T08:42:40.730Z,22.50
2019-02-15T08:45:13.299Z,21.30
2019-02-15T08:47:42.800Z,22.00
2019-02-15T08:50:12.643Z,20.17
2019-02-15T08:52:42.104Z,20.23
2019-02-15T08:55:12.022Z,22.17
2019-02-15T08:57:41.469Z,21.47
2019-02-15T09:00:12.728Z,22.03
2019-02-15T09:02:43.175Z,20.77
2019-02-15T09:05:13.037Z,21.20
2019-02-15T09:07:42.433Z,22.27
2019-02-15T09:10:13.529Z,22.60
2019-02-15T09:12:42.871Z,20.90
2019-02-15T09:15:15.078Z,20.20
2019-02-15T09:17:44.546Z,20.67
2019-02-15T09:20:13.953Z,20.53
2019-02-15T09:22:43.381Z,19.87
2019-02-15T09:25:12.922Z,21.23
2019-02-15T09:27:44.946Z,21.40
2019-02-15T09:30:15.062Z,20.33
2019-02-15T09:32:44.534Z,21.00
2019-02-15T09:35:13.857Z,21.40
2019-02-15T09:37:43.221Z,21.40
2019-02-15T09:40:12.624Z,20.73
2019-02-15T09:42:41.961Z,20.40
2019-02-15T09:45:11.551Z,21.33
2019-02-15T09:47:41.000Z,21.87
2019-02-15T09:50:12.022Z,22.57
2019-02-15T09:52:40.854Z,21.67
2019-02-15T09:55:09.862Z,21.67
2019-02-15T09:57:38.848Z,21.77
2019-02-15T10:00:08.688Z,21.60
2019-02-15T10:02:37.763Z,22.03
2019-02-15T10:05:07.424Z,22.23
2019-02-15T10:07:36.420Z,22.33
2019-02-15T10:10:06.886Z,22.00
2019-02-15T10:12:35.822Z,21.23
2019-02-15T10:15:06.424Z,23.97
2019-02-15T10:17:35.522Z,22.23
2019-02-15T10:20:05.269Z,22.67
2019-02-15T10:22:34.252Z,23.47
2019-02-15T10:25:03.771Z,23.23
2019-02-15T10:27:32.984Z,22.20
2019-02-15T10:30:02.557Z,24.13
2019-02-15T10:32:32.172Z,22.43
2019-02-15T10:35:01.135Z,22.10
2019-02-15T10:37:30.113Z,22.07
2019-02-15T10:39:59.065Z,23.13
2019-02-15T10:42:27.962Z,23.37
2019-02-15T10:44:56.877Z,23.33
2019-02-15T10:47:25.840Z,23.47
2019-02-15T10:49:54.743Z,22.93
2019-02-15T10:52:24.633Z,22.20
2019-02-15T10:54:53.573Z,21.93
2019-02-15T10:57:22.498Z,22.47
2019-02-15T10:59:51.441Z,23.03
2019-02-15T11:02:20.466Z,22.23
2019-02-15T11:04:49.519Z,22.53
2019-02-15T11:07:18.794Z,23.03
2019-02-15T11:09:54.649Z,22.37
2019-02-15T11:12:25.221Z,22.53
2019-02-15T11:14:54.149Z,22.13
2019-02-15T11:17:23.129Z,22.93
2019-02-15T11:19:52.095Z,23.60
2019-02-15T11:22:21.029Z,23.27
2019-02-15T11:24:49.941Z,24.77
2019-02-15T11:27:18.846Z,24.13
2019-02-15T11:29:47.793Z,24.60
2019-02-15T11:32:16.708Z,23.00
2019-02-15T11:34:45.636Z,24.03
2019-02-15T11:37:14.548Z,24.83
2019-02-15T11:39:43.453Z,23.70
2019-02-15T11:42:12.391Z,24.57
2019-02-15T11:44:41.320Z,25.03
2019-02-15T11:47:10.230Z,24.03
2019-02-15T11:49:39.146Z,23.60
2019-02-15T11:52:08.144Z,23.00
2019-02-15T11:54:37.176Z,23.53
2019-02-15T11:57:06.173Z,23.47
2019-02-15T11:59:35.096Z,22.37
2019-02-15T12:02:06.466Z,23.43
2019-02-15T12:04:34.680Z,23.40
2019-02-15T12:07:03.582Z,22.87
2019-02-15T12:09:32.573Z,23.40
2019-02-15T12:12:10.200Z,23.03
2019-02-15T12:14:32.069Z,22.90
2019-02-15T12:17:05.630Z,23.53
2019-02-15T12:19:32.744Z,24.60
2019-02-15T12:22:01.683Z,22.50
2019-02-15T12:24:30.594Z,23.40
2019-02-15T12:26:59.565Z,22.77
2019-02-15T12:29:28.506Z,22.93
2019-02-15T12:31:57.417Z,22.03
2019-02-15T12:34:26.347Z,21.53
2019-02-15T12:36:55.298Z,20.60
2019-02-15T12:39:24.233Z,22.63
2019-02-15T12:41:53.186Z,22.13
2019-02-15T12:44:22.161Z,21.90
2019-02-15T12:46:51.069Z,21.83
2019-02-15T12:49:20.064Z,22.50
2019-02-15T12:51:48.951Z,21.70
2019-02-15T12:54:17.924Z,23.10
2019-02-15T12:56:46.922Z,22.07
2019-02-15T12:59:15.832Z,21.47
2019-02-15T13:01:44.804Z,22.27
2019-02-15T13:04:13.737Z,21.17
2019-02-15T13:06:43.224Z,21.87
2019-02-15T13:09:12.225Z,20.73
2019-02-15T13:11:41.171Z,22.50
2019-02-15T13:14:10.073Z,21.93
2019-02-15T13:16:38.978Z,21.20
2019-02-15T13:19:07.962Z,21.93
2019-02-15T13:21:36.876Z,22.00
2019-02-15T13:24:05.790Z,20.87
2019-02-15T13:26:34.745Z,21.50
2019-02-15T13:29:03.821Z,23.00
2019-02-15T13:31:32.755Z,22.10
2019-02-15T13:34:01.726Z,21.27
2019-02-15T13:36:31.596Z,21.10
2019-02-15T13:39:00.502Z,21.67
2019-02-15T13:41:31.057Z,21.57
2019-02-15T13:43:59.956Z,21.33
2019-02-15T13:46:28.859Z,22.20
2019-02-15T13:48:57.812Z,21.03
2019-02-15T13:51:26.725Z,21.50
2019-02-15T13:53:55.640Z,20.77
2019-02-15T13:56:24.618Z,20.23
2019-02-15T13:58:53.584Z,21.33
2019-02-15T14:01:22.513Z,20.50
2019-02-15T14:03:51.444Z,19.50
2019-02-15T14:06:20.359Z,19.60
2019-02-15T14:08:49.276Z,19.03
2019-02-15T14:11:18.255Z,18.87
2019-02-15T14:13:47.240Z,18.30
2019-02-15T14:16:16.155Z,20.60
2019-02-15T14:18:45.221Z,20.00
2019-02-15T14:21:14.139Z,19.23
2019-02-15T14:23:43.115Z,20.00
2019-02-15T14:26:12.067Z,18.33
2019-02-15T14:28:41.048Z,18.23
2019-02-15T14:31:09.952Z,17.40
2019-02-15T14:33:38.905Z,18.50
2019-02-15T14:36:08.371Z,17.67
2019-02-15T14:38:38.597Z,17.43
2019-02-15T14:41:07.576Z,19.53
2019-02-15T14:43:36.461Z,19.23
2019-02-15T14:46:05.373Z,18.37
2019-02-15T14:48:35.917Z,17.43
2019-02-15T14:51:04.873Z,18.63
2019-02-15T14:53:33.857Z,18.33
2019-02-15T14:56:02.759Z,18.07
2019-02-15T14:58:31.697Z,17.03
2019-02-15T15:01:00.611Z,17.60
2019-02-15T15:03:29.658Z,16.30
2019-02-15T15:05:58.584Z,15.63
2019-02-15T15:08:27.561Z,16.97
2019-02-15T15:10:56.502Z,15.57
2019-02-15T15:13:25.401Z,13.87
2019-02-15T15:15:54.313Z,15.33
2019-02-15T15:18:23.244Z,15.23
2019-02-15T15:20:52.149Z,17.40
2019-02-15T15:23:21.140Z,16.30
2019-02-15T15:25:50.070Z,16.23
2019-02-15T15:28:18.982Z,16.27
2019-02-15T15:30:47.896Z,14.77
2019-02-15T15:33:16.849Z,15.57
2019-02-15T15:35:45.754Z,16.77
2019-02-15T15:38:14.752Z,16.17
2019-02-15T15:40:43.675Z,16.60
2019-02-15T15:43:12.584Z,17.40
2019-02-15T15:45:41.512Z,17.73
2019-02-15T15:48:22.290Z,17.67
2019-02-15T15:50:44.115Z,18.83
2019-02-15T15:53:13.065Z,18.93
2019-02-15T15:55:41.970Z,17.03
2019-02-15T15:58:10.874Z,18.60
2019-02-15T16:00:39.801Z,17.53
2019-02-15T16:03:08.694Z,16.80
2019-02-15T16:05:37.592Z,16.90
2019-02-15T16:08:06.574Z,16.47
2019-02-15T16:10:35.512Z,16.10
2019-02-15T16:13:04.419Z,15.03
2019-02-15T16:15:33.327Z,15.20
2019-02-15T16:18:02.265Z,16.20
2019-02-15T16:20:31.163Z,13.90
2019-02-15T16:23:00.065Z,14.90
2019-02-15T16:25:28.978Z,14.93
2019-02-15T16:27:57.921Z,15.37
2019-02-15T16:30:26.885Z,13.53
2019-02-15T16:32:55.835Z,11.73
2019-02-15T16:35:24.725Z,12.43
2019-02-15T16:37:53.654Z,10.50
2019-02-15T16:40:22.560Z,10.17
2019-02-15T16:42:51.455Z,9.87
2019-02-15T16:45:20.372Z,9.67
2019-02-15T16:47:49.384Z,10.37
2019-02-15T16:50:18.296Z,9.43
2019-02-15T16:52:47.206Z,9.33
2019-02-15T16:55:16.126Z,11.00
2019-02-15T16:57:45.076Z,9.60
2019-02-15T17:00:14.421Z,10.10
2019-02-15T17:02:43.318Z,9.80
2019-02-15T17:05:12.401Z,11.03
2019-02-15T17:07:41.318Z,10.20
2019-02-15T17:10:10.652Z,9.97
2019-02-15T17:12:39.730Z,10.33
2019-02-15T17:15:10.084Z,10.40
2019-02-15T17:17:39.070Z,9.73
2019-02-15T17:20:08.849Z,9.73
2019-02-15T17:22:37.748Z,10.33
2019-02-15T17:25:07.922Z,10.17
2019-02-15T17:27:36.861Z,11.13
2019-02-15T17:30:07.342Z,11.90
2019-02-15T17:32:36.262Z,11.07
2019-02-15T17:35:06.379Z,11.90
2019-02-15T17:37:35.343Z,10.53
2019-02-15T17:40:05.867Z,10.17
2019-02-15T17:42:34.883Z,11.13
2019-02-15T17:45:05.978Z,11.97
2019-02-15T17:47:34.952Z,10.93
2019-02-15T17:50:04.564Z,12.93
2019-02-15T17:52:33.617Z,12.43
2019-02-15T17:55:02.528Z,12.37
2019-02-15T17:57:31.546Z,12.47
2019-02-15T18:00:00.527Z,12.43
2019-02-15T18:02:29.513Z,11.83
2019-02-15T18:04:58.456Z,11.77
2019-02-15T18:07:27.378Z,11.73
2019-02-15T18:09:56.296Z,11.90
2019-02-15T18:12:25.248Z,11.90
2019-02-15T18:14:54.148Z,11.67
2019-02-15T18:17:23.064Z,11.70
2019-02-15T18:19:52.141Z,11.93
2019-02-15T18:22:21.042Z,11.83
2019-02-15T18:24:49.948Z,11.53
2019-02-15T18:27:18.936Z,12.10
2019-02-15T18:29:48.038Z,12.03
2019-02-15T18:32:16.967Z,11.43
2019-02-15T18:34:45.918Z,11.20
2019-02-15T18:37:14.901Z,11.97
2019-02-15T18:39:43.809Z,11.17
2019-02-15T18:42:12.754Z,12.07
2019-02-15T18:44:41.657Z,11.47
2019-02-15T18:47:10.581Z,12.57
2019-02-15T18:49:39.533Z,11.73
2019-02-15T18:52:10.000Z,10.87
2019-02-15T18:54:38.990Z,10.93
2019-02-15T18:57:07.909Z,11.90
2019-02-15T18:59:36.857Z,11.33
2019-02-15T19:02:05.812Z,11.07
2019-02-15T19:04:35.064Z,10.67
2019-02-15T19:07:04.424Z,11.30
2019-02-15T19:09:33.768Z,11.50
2019-02-15T19:12:03.166Z,11.90
2019-02-15T19:14:32.501Z,11.13
2019-02-15T19:17:01.813Z,11.47
2019-02-15T19:19:32.182Z,11.57
2019-02-15T19:22:01.517Z,11.37
2019-02-15T19:24:30.841Z,12.60
2019-02-15T19:27:00.171Z,12.47
2019-02-15T19:29:29.506Z,12.17
2019-02-15T19:31:58.846Z,12.97
2019-02-15T19:34:28.308Z,12.30
2019-02-15T19:36:57.801Z,12.00
2019-02-15T19:39:27.133Z,12.13
2019-02-15T19:41:56.531Z,11.07
2019-02-15T19:44:25.913Z,11.63
2019-02-15T19:46:55.232Z,12.70
2019-02-15T19:49:24.630Z,12.73
2019-02-15T19:51:53.957Z,13.10
2019-02-15T19:54:23.268Z,12.83
2019-02-15T19:56:52.601Z,12.67
2019-02-15T19:59:21.974Z,12.97
2019-02-15T20:01:51.288Z,12.50
2019-02-15T20:04:20.621Z,13.43
2019-02-15T20:06:50.046Z,13.00
2019-02-15T20:09:19.580Z,13.40
2019-02-15T20:11:49.045Z,12.80
2019-02-15T20:14:18.468Z,12.73
2019-02-15T20:16:47.796Z,13.30
2019-02-15T20:19:17.185Z,12.07
2019-02-15T20:21:46.535Z,12.60
2019-02-15T20:24:15.869Z,11.70
2019-02-15T20:26:45.190Z,12.03
2019-02-15T20:29:14.628Z,13.03
2019-02-15T20:31:44.009Z,12.67
2019-02-15T20:34:13.410Z,12.83
2019-02-15T20:36:42.815Z,12.60
2019-02-15T20:39:12.279Z,13.30
2019-02-15T20:41:56.747Z,12.40
2019-02-15T20:44:29.371Z,13.50
2019-02-15T20:46:58.775Z,12.70
2019-02-15T20:49:28.102Z,13.47
2019-02-15T20:51:57.435Z,13.50
2019-02-15T20:54:26.867Z,12.87
2019-02-15T20:56:56.305Z,13.33
2019-02-15T20:59:25.721Z,14.23
2019-02-15T21:01:55.136Z,13.67
2019-02-15T21:04:24.461Z,13.07
2019-02-15T21:06:55.392Z,13.53
2019-02-15T21:09:24.717Z,12.83
2019-02-15T21:11:54.038Z,14.23
2019-02-15T21:14:23.410Z,14.73
2019-02-15T21:16:52.730Z,14.30
2019-02-15T21:19:22.062Z,14.93
2019-02-15T21:21:51.422Z,13.23
2019-02-15T21:24:20.757Z,13.73
2019-02-15T21:26:50.082Z,12.70
2019-02-15T21:29:19.450Z,14.03
2019-02-15T21:31:48.772Z,13.07
2019-02-15T21:34:18.096Z,13.53
2019-02-15T21:36:47.443Z,13.07
2019-02-15T21:39:16.766Z,13.30
2019-02-15T21:41:46.093Z,13.43
2019-02-15T21:44:15.446Z,14.97
2019-02-15T21:46:44.772Z,14.67
2019-02-15T21:49:14.097Z,14.40
2019-02-15T21:51:43.448Z,13.67
2019-02-15T21:54:12.847Z,13.80
2019-02-15T21:56:42.157Z,14.67
2019-02-15T21:59:11.493Z,13.50
2019-02-15T22:01:41.886Z,14.67
2019-02-15T22:04:11.266Z,14.83
2019-02-15T22:06:40.714Z,15.40
2019-02-15T22:09:10.173Z,14.27
2019-02-15T22:11:39.866Z,14.87
2019-02-15T22:14:09.224Z,15.57
2019-02-15T22:16:38.597Z,15.73
2019-02-15T22:19:07.981Z,16.10
2019-02-15T22:21:37.332Z,16.03
2019-02-15T22:24:06.653Z,17.37
2019-02-15T22:26:36.049Z,17.43
2019-02-15T22:29:05.439Z,16.90
2019-02-15T22:31:34.792Z,16.27
2019-02-15T22:34:04.117Z,16.57
2019-02-15T22:36:33.432Z,17.90
2019-02-15T22:39:02.787Z,16.60
2019-02-15T22:41:33.792Z,16.33
2019-02-15T22:44:03.136Z,16.73
2019-02-15T22:46:32.455Z,16.23
2019-02-15T22:49:01.849Z,17.17
2019-02-15T22:51:31.300Z,15.47
2019-02-15T22:54:00.652Z,18.90
2019-02-15T22:56:29.976Z,19.30
2019-02-15T22:58:59.325Z,18.30
2019-02-15T23:01:28.972Z,19.97
2019-02-15T23:03:58.530Z,20.47
2019-02-15T23:06:27.972Z,19.03
2019-02-15T23:08:57.603Z,19.57
2019-02-15T23:11:26.933Z,19.13
2019-02-15T23:13:56.292Z,18.47
2019-02-15T23:16:25.622Z,18.57
2019-02-15T23:18:54.941Z,19.87
2019-02-15T23:21:24.296Z,22.27
2019-02-15T23:23:53.622Z,19.13
2019-02-15T23:26:23.006Z,21.33
2019-02-15T23:28:52.437Z,21.40
2019-02-15T23:31:21.901Z,21.30
2019-02-15T23:33:51.226Z,19.33
2019-02-15T23:36:20.566Z,19.10
2019-02-15T23:38:49.896Z,20.77
2019-02-15T23:41:19.213Z,21.13
2019-02-15T23:43:48.596Z,20.87
2019-02-15T23:46:18.001Z,20.83
2019-02-15T23:48:47.333Z,19.67
2019-02-15T23:51:16.802Z,21.70
2019-02-15T23:53:46.199Z,22.97
2019-02-15T23:56:15.515Z,20.43
2019-02-15T23:58:44.862Z,22.80
